Decoded Metar for KRPD (RICE LAKE in WI, USA) (IATA:RPD) | Meteo·Mobile Aviation Weather
aviador You're here:

KRPD Decoded Metar

RICE LAKE in WI, USA
Report Time2019-03-20 23:15:00
UTC Time2019-03-20 23:39:52
Flight Rules vfr VFR
Wind340° at 07 kt
W.Decomp.*RWY 31: 6.1 kt HW 3.4 kt RCW
RWY 01: 6.0 kt HW 3.6 kt LCW
W.Rank340° ranks 17
Current wind is above 340° avg. (6.6)
Visibility9999 m
Phenomena:N/A
Clouds:Overcast 036 Hf
Expected CloudBase > 1,600 ft AGL from Temp-Dew spread
Ceiling3,600 ft
Temp04°C (ISA -9)
Dew Point00°C (75% RH)
AAT-0.5°C
QNH1015 hPa
Density Alt66 ft
Elevation1,109 ft
Report Wrong Elevation
Raw Report
KRPD 202315Z AUTO 34007KT 10SM OVC036 04/00 A2998 RMK AO2
T00361001=

Extra information for KRPD:More info

Metar Taf Metar & Taf Last 4 Metars F.Rules Stats Wind Profile Meteogram Temp Stats Airport Information Weather charts Add Link Nearby VenuesMetar ALERT Operation Metar Decoded Social comments

AIRNAV info for KRPD